Time;durP1;ratioP1;P1;durP2;ratioP2;P2;SDS_P1;SDS_P2;PMS_P1;PMS_P2;Temp;Humidity;BMP_temperature;BMP_pressure;BME280_temperature;BME280_humidity;BME280_pressure;Samples;Min_cycle;Max_cycle;Signal;HPM_P1;HPM_P2
2023/06/14 00:00:56;;;;;;;4.05;3.75;;;;;;;;;;5083741;28;20515;-71
2023/06/14 00:03:24;;;;;;;4.63;3.63;;;;;;;;;;5083329;28;20262;-71
2023/06/14 00:05:50;;;;;;;4.03;3.60;;;;;;;;;;5083474;28;20525;-71
2023/06/14 00:08:18;;;;;;;3.78;3.47;;;;;;;;;;5083382;28;20209;-71
2023/06/14 00:10:44;;;;;;;4.00;3.60;;;;;;;;;;5083567;28;20398;-71
2023/06/14 00:13:12;;;;;;;5.32;3.92;;;;;;;;;;5083560;28;20197;-71
2023/06/14 00:15:38;;;;;;;3.60;3.40;;;;;;;;;;5083389;28;20246;-71
2023/06/14 00:18:05;;;;;;;4.05;3.70;;;;;;;;;;5083085;28;20200;-71
2023/06/14 00:20:32;;;;;;;3.92;3.47;;;;;;;;;;5083247;28;20212;-71
2023/06/14 00:22:59;;;;;;;3.80;3.50;;;;;;;;;;5083156;28;20227;-71
2023/06/14 00:25:26;;;;;;;6.18;3.60;;;;;;;;;;5082946;28;20225;-71
2023/06/14 00:27:52;;;;;;;3.60;3.45;;;;;;;;;;5083099;28;20315;-71
2023/06/14 00:30:19;;;;;;;4.60;3.92;;;;;;;;;;5083175;28;20200;-71
2023/06/14 00:32:46;;;;;;;7.43;3.67;;;;;;;;;;5082175;28;20200;-71
2023/06/14 00:35:12;;;;;;;4.15;3.75;;;;;;;;;;5083231;28;20201;-71
2023/06/14 00:37:39;;;;;;;4.00;3.70;;;;;;;;;;5082668;28;20216;-71
2023/06/14 00:40:06;;;;;;;5.55;3.45;;;;;;;;;;5083004;28;20204;-71
2023/06/14 00:42:33;;;;;;;4.13;3.83;;;;;;;;;;5082708;28;20232;-71
2023/06/14 00:45:00;;;;;;;6.78;3.67;;;;;;;;;;5082784;28;20239;-71
2023/06/14 00:47:28;;;;;;;4.25;3.88;;;;;;;;;;5082239;28;20201;-71
2023/06/14 00:49:55;;;;;;;4.57;3.40;;;;;;;;;;5082758;28;20508;-71
2023/06/14 00:52:24;;;;;;;3.65;3.35;;;;;;;;;;5082896;28;20211;-71
2023/06/14 00:54:50;;;;;;;4.07;3.75;;;;;;;;;;5082878;28;20200;-71
2023/06/14 00:57:17;;;;;;;8.25;4.10;;;;;;;;;;5082562;28;20439;-71
2023/06/14 00:59:44;;;;;;;3.78;3.55;;;;;;;;;;5082654;28;20207;-71
2023/06/14 01:02:10;;;;;;;4.13;3.85;;;;;;;;;;5082504;28;20231;-71
2023/06/14 01:04:38;;;;;;;4.05;3.20;;;;;;;;;;5082146;28;20204;-71
2023/06/14 01:07:13;;;;;;;3.75;3.53;;;;;;;;;;5082085;28;20200;-71
2023/06/14 01:09:44;;;;;;;4.05;3.70;;;;;;;;;;5082236;28;20203;-71
2023/06/14 01:12:14;;;;;;;3.65;3.42;;;;;;;;;;5082671;28;20196;-71
2023/06/14 01:14:42;;;;;;;3.95;3.63;;;;;;;;;;5082288;28;20215;-71
2023/06/14 01:17:15;;;;;;;3.58;3.38;;;;;;;;;;5082214;28;20192;-71
2023/06/14 01:19:43;;;;;;;3.47;3.28;;;;;;;;;;5082226;28;20267;-71
2023/06/14 01:22:09;;;;;;;5.60;3.85;;;;;;;;;;5082125;28;20533;-71
2023/06/14 01:24:39;;;;;;;4.70;3.63;;;;;;;;;;5082245;28;20196;-71
2023/06/14 01:27:06;;;;;;;3.80;3.50;;;;;;;;;;5082099;28;20317;-71
2023/06/14 01:29:36;;;;;;;6.50;3.90;;;;;;;;;;5082094;28;20504;-71
2023/06/14 01:32:02;;;;;;;4.00;3.70;;;;;;;;;;5081932;28;20493;-71
2023/06/14 01:34:29;;;;;;;3.97;3.67;;;;;;;;;;5081879;28;20199;-71
2023/06/14 01:36:55;;;;;;;6.65;3.45;;;;;;;;;;5081758;28;20200;-71
2023/06/14 01:39:22;;;;;;;3.50;3.35;;;;;;;;;;5082229;28;20196;-71
2023/06/14 01:41:50;;;;;;;4.40;4.00;;;;;;;;;;5082101;28;20533;-71
2023/06/14 01:44:18;;;;;;;3.50;3.30;;;;;;;;;;5081932;28;20412;-71
2023/06/14 01:46:44;;;;;;;4.22;3.80;;;;;;;;;;5081861;28;20203;-71
2023/06/14 01:49:11;;;;;;;4.22;3.60;;;;;;;;;;5081813;28;20434;-71
2023/06/14 01:51:37;;;;;;;3.70;3.40;;;;;;;;;;5081931;28;20204;-71
2023/06/14 01:54:04;;;;;;;3.85;3.60;;;;;;;;;;5082014;28;20192;-71
2023/06/14 01:56:30;;;;;;;4.60;3.67;;;;;;;;;;5081968;28;20392;-71
2023/06/14 01:58:58;;;;;;;4.75;3.67;;;;;;;;;;5081702;28;20239;-71
2023/06/14 02:01:24;;;;;;;3.95;3.70;;;;;;;;;;5081962;28;20388;-71
2023/06/14 02:03:51;;;;;;;4.00;3.70;;;;;;;;;;5081537;28;20231;-71
2023/06/14 02:06:17;;;;;;;4.72;3.58;;;;;;;;;;5081868;28;20507;-70
2023/06/14 02:08:43;;;;;;;3.50;3.30;;;;;;;;;;5081375;28;20530;-70
2023/06/14 02:11:09;;;;;;;4.07;3.60;;;;;;;;;;5081893;28;20504;-71
2023/06/14 02:13:36;;;;;;;3.88;3.67;;;;;;;;;;5081671;28;20193;-71
2023/06/14 02:16:04;;;;;;;4.93;3.72;;;;;;;;;;5081803;28;20314;-71
2023/06/14 02:18:30;;;;;;;4.15;3.60;;;;;;;;;;5081266;28;20477;-71
2023/06/14 02:20:57;;;;;;;4.45;4.10;;;;;;;;;;5081859;28;20212;-71
2023/06/14 02:23:23;;;;;;;4.25;3.70;;;;;;;;;;5080597;28;20222;-71
2023/06/14 02:25:49;;;;;;;7.30;3.60;;;;;;;;;;5081332;28;20207;-71
2023/06/14 02:28:16;;;;;;;3.88;3.58;;;;;;;;;;5081253;28;20456;-71
2023/06/14 02:30:42;;;;;;;9.23;3.70;;;;;;;;;;5081476;28;20409;-71
2023/06/14 02:33:12;;;;;;;4.22;3.90;;;;;;;;;;5081516;28;20199;-71
2023/06/14 02:35:39;;;;;;;3.50;3.30;;;;;;;;;;5081608;28;20200;-71
2023/06/14 02:38:05;;;;;;;5.07;3.50;;;;;;;;;;5081648;28;20203;-71
2023/06/14 02:40:31;;;;;;;5.35;3.78;;;;;;;;;;5081597;28;20503;-71
2023/06/14 02:42:57;;;;;;;4.32;4.00;;;;;;;;;;5081373;28;20224;-71
2023/06/14 02:45:24;;;;;;;5.07;3.58;;;;;;;;;;5081357;28;20196;-71
2023/06/14 02:47:51;;;;;;;4.47;3.83;;;;;;;;;;5081040;28;20200;-71
2023/06/14 02:50:18;;;;;;;4.00;3.78;;;;;;;;;;5081602;28;20196;-71
2023/06/14 02:52:45;;;;;;;3.72;3.42;;;;;;;;;;5081422;28;20204;-70
2023/06/14 02:55:11;;;;;;;4.43;3.80;;;;;;;;;;5081747;28;20196;-71
2023/06/14 02:57:37;;;;;;;4.55;3.60;;;;;;;;;;5084305;28;20196;-71
2023/06/14 03:00:05;;;;;;;3.55;3.33;;;;;;;;;;5084943;28;20196;-71
2023/06/14 03:02:31;;;;;;;3.53;3.22;;;;;;;;;;5085034;28;20426;-71
2023/06/14 03:05:01;;;;;;;4.22;3.85;;;;;;;;;;5076800;28;20417;-71
2023/06/14 03:07:29;;;;;;;5.00;4.60;;;;;;;;;;5084687;28;20208;-71
2023/06/14 03:09:56;;;;;;;4.35;3.95;;;;;;;;;;5084755;28;20208;-71
2023/06/14 03:12:23;;;;;;;4.00;3.70;;;;;;;;;;5084805;28;20426;-71
2023/06/14 03:14:51;;;;;;;4.40;4.00;;;;;;;;;;5084395;28;20302;-71
2023/06/14 03:17:19;;;;;;;4.53;4.13;;;;;;;;;;5084235;28;20215;-71
2023/06/14 03:19:45;;;;;;;4.35;3.90;;;;;;;;;;5084377;28;20200;-71
2023/06/14 03:22:12;;;;;;;5.75;3.70;;;;;;;;;;5084546;28;20502;-71
2023/06/14 03:24:41;;;;;;;6.15;4.43;;;;;;;;;;5084224;28;20216;-71
2023/06/14 03:27:09;;;;;;;5.53;4.03;;;;;;;;;;5084020;28;20464;-71
2023/06/14 03:29:36;;;;;;;4.82;4.30;;;;;;;;;;5084461;28;20259;-71
2023/06/14 03:32:02;;;;;;;4.13;3.83;;;;;;;;;;5084567;28;20242;-71
2023/06/14 03:34:30;;;;;;;4.20;3.75;;;;;;;;;;5084403;28;20500;-71
2023/06/14 03:36:56;;;;;;;4.25;3.92;;;;;;;;;;5084081;28;20197;-71
2023/06/14 03:39:22;;;;;;;4.70;4.05;;;;;;;;;;5084270;28;20195;-71
2023/06/14 03:41:50;;;;;;;5.75;4.28;;;;;;;;;;5084221;28;20205;-71
2023/06/14 03:44:17;;;;;;;6.03;4.50;;;;;;;;;;5083828;28;20224;-71
2023/06/14 03:46:44;;;;;;;4.82;4.22;;;;;;;;;;5084059;28;20211;-71
2023/06/14 03:49:10;;;;;;;4.95;4.55;;;;;;;;;;5083926;28;20250;-71
2023/06/14 03:51:37;;;;;;;4.60;4.20;;;;;;;;;;5084197;28;20222;-71
2023/06/14 03:54:03;;;;;;;4.43;4.05;;;;;;;;;;5083954;28;20234;-71
2023/06/14 03:56:29;;;;;;;4.50;4.10;;;;;;;;;;5083794;28;20196;-71
2023/06/14 03:58:57;;;;;;;4.15;3.88;;;;;;;;;;5083467;28;20208;-71
2023/06/14 04:01:29;;;;;;;5.00;4.57;;;;;;;;;;5083619;28;20200;-71
2023/06/14 04:03:55;;;;;;;5.28;4.40;;;;;;;;;;5083740;28;22286;-71
2023/06/14 04:06:22;;;;;;;3.95;3.67;;;;;;;;;;5083876;28;20523;-71
2023/06/14 04:08:49;;;;;;;4.95;4.40;;;;;;;;;;5082305;28;20201;-71
2023/06/14 04:11:15;;;;;;;4.35;4.05;;;;;;;;;;5083665;28;20207;-71
2023/06/14 04:13:41;;;;;;;4.40;4.00;;;;;;;;;;5083739;28;20200;-71
2023/06/14 04:16:09;;;;;;;4.18;3.67;;;;;;;;;;5084670;28;20200;-72
2023/06/14 04:18:35;;;;;;;5.07;3.90;;;;;;;;;;5086611;28;20229;-72
2023/06/14 04:21:02;;;;;;;4.95;4.20;;;;;;;;;;5086736;28;20197;-72
2023/06/14 04:23:28;;;;;;;4.82;4.43;;;;;;;;;;5086661;28;20216;-72
2023/06/14 04:25:54;;;;;;;3.70;3.50;;;;;;;;;;5086362;28;20200;-72
2023/06/14 04:28:25;;;;;;;4.90;4.20;;;;;;;;;;5087031;28;20221;-72
2023/06/14 04:30:53;;;;;;;5.05;4.65;;;;;;;;;;5087572;28;20473;-72
2023/06/14 04:33:21;;;;;;;4.60;4.20;;;;;;;;;;5087513;28;20481;-72
2023/06/14 04:35:48;;;;;;;4.32;3.70;;;;;;;;;;5086831;28;20399;-72
2023/06/14 04:38:15;;;;;;;5.40;4.47;;;;;;;;;;5086590;28;20244;-72
2023/06/14 04:40:44;;;;;;;6.28;4.63;;;;;;;;;;5086588;28;20496;-72
2023/06/14 04:43:12;;;;;;;3.97;3.78;;;;;;;;;;5086761;28;20196;-72
2023/06/14 04:45:39;;;;;;;6.47;4.22;;;;;;;;;;5086425;28;20219;-72
2023/06/14 04:48:06;;;;;;;4.85;3.88;;;;;;;;;;5086391;28;20238;-72
2023/06/14 04:50:34;;;;;;;8.70;4.60;;;;;;;;;;5086652;28;20245;-72
2023/06/14 04:53:01;;;;;;;4.55;4.13;;;;;;;;;;5086812;28;20208;-72
2023/06/14 04:55:27;;;;;;;4.20;3.90;;;;;;;;;;5086661;28;20227;-72
2023/06/14 04:57:54;;;;;;;4.82;4.30;;;;;;;;;;5086673;28;20200;-72
2023/06/14 05:00:20;;;;;;;4.22;3.92;;;;;;;;;;5086774;28;20268;-72
2023/06/14 05:02:49;;;;;;;4.43;4.03;;;;;;;;;;5086620;28;20200;-71
2023/06/14 05:05:15;;;;;;;4.72;4.40;;;;;;;;;;5086067;28;20228;-71
2023/06/14 05:07:43;;;;;;;8.00;5.22;;;;;;;;;;5086348;28;20222;-71
2023/06/14 05:10:09;;;;;;;8.65;6.10;;;;;;;;;;5086710;28;20263;-72
2023/06/14 05:12:36;;;;;;;6.97;5.70;;;;;;;;;;5086029;28;20197;-72
2023/06/14 05:15:03;;;;;;;9.13;5.70;;;;;;;;;;5086511;28;20284;-72
2023/06/14 05:17:29;;;;;;;7.72;5.78;;;;;;;;;;5086351;28;20425;-72
2023/06/14 05:19:55;;;;;;;9.73;6.07;;;;;;;;;;5086325;28;20207;-72
2023/06/14 05:22:21;;;;;;;9.52;5.80;;;;;;;;;;5086689;28;20196;-72
2023/06/14 05:24:49;;;;;;;11.65;5.93;;;;;;;;;;5086537;28;20216;-72
2023/06/14 05:27:15;;;;;;;8.63;5.32;;;;;;;;;;5086523;28;20540;-72
2023/06/14 05:29:42;;;;;;;6.57;5.57;;;;;;;;;;5086340;28;20561;-72
2023/06/14 05:32:08;;;;;;;11.43;5.50;;;;;;;;;;5086819;28;20272;-72
2023/06/14 05:34:34;;;;;;;6.93;5.57;;;;;;;;;;5086309;28;20200;-72
2023/06/14 05:37:01;;;;;;;10.30;5.47;;;;;;;;;;5084235;28;20406;-59
2023/06/14 05:39:27;;;;;;;10.95;5.50;;;;;;;;;;5082290;28;20200;-59
2023/06/14 05:41:55;;;;;;;6.80;4.68;;;;;;;;;;5082246;28;20200;-59
2023/06/14 05:44:21;;;;;;;7.25;4.60;;;;;;;;;;5082102;28;20239;-59
2023/06/14 05:46:47;;;;;;;10.90;5.38;;;;;;;;;;5082187;28;20204;-59
2023/06/14 05:49:13;;;;;;;7.35;4.53;;;;;;;;;;5082041;28;20204;-59
2023/06/14 05:51:40;;;;;;;7.30;5.43;;;;;;;;;;5082262;28;20196;-59
2023/06/14 05:54:06;;;;;;;10.00;6.00;;;;;;;;;;5073439;28;20232;-58
2023/06/14 05:56:32;;;;;;;6.93;5.47;;;;;;;;;;5076586;28;20230;-57
2023/06/14 05:59:00;;;;;;;13.27;6.22;;;;;;;;;;5076421;28;20208;-59
2023/06/14 06:01:26;;;;;;;14.18;6.50;;;;;;;;;;5077077;28;20524;-58
2023/06/14 06:03:53;;;;;;;8.20;5.88;;;;;;;;;;5075097;28;20291;-59
2023/06/14 06:06:19;;;;;;;11.20;6.07;;;;;;;;;;5073317;28;20253;-59
2023/06/14 06:08:46;;;;;;;12.60;6.38;;;;;;;;;;5072675;28;20425;-58
2023/06/14 06:11:12;;;;;;;11.60;6.60;;;;;;;;;;5074614;28;20283;-58
2023/06/14 06:13:38;;;;;;;7.47;6.20;;;;;;;;;;5074692;28;20235;-58
2023/06/14 06:16:06;;;;;;;5.47;4.97;;;;;;;;;;5075199;28;20217;-58
2023/06/14 06:18:32;;;;;;;9.88;6.13;;;;;;;;;;5074921;28;20257;-58
2023/06/14 06:20:59;;;;;;;11.65;6.50;;;;;;;;;;5074551;28;20219;-58
2023/06/14 06:23:25;;;;;;;10.75;6.45;;;;;;;;;;5070576;28;20583;-58
2023/06/14 06:25:52;;;;;;;8.77;5.80;;;;;;;;;;5075373;28;20381;-57
2023/06/14 06:28:18;;;;;;;13.43;6.60;;;;;;;;;;5075642;28;20224;-58
2023/06/14 06:30:44;;;;;;;9.40;5.80;;;;;;;;;;5075156;28;20302;-58
2023/06/14 06:33:12;;;;;;;9.85;5.95;;;;;;;;;;5078902;28;20213;-58
2023/06/14 06:35:39;;;;;;;8.38;5.70;;;;;;;;;;5078971;28;20254;-59
2023/06/14 06:38:05;;;;;;;8.73;6.07;;;;;;;;;;5078911;28;20216;-58
2023/06/14 06:40:31;;;;;;;15.88;6.25;;;;;;;;;;5078956;28;20212;-57
2023/06/14 06:42:58;;;;;;;8.95;5.60;;;;;;;;;;5079125;28;20226;-58
2023/06/14 06:45:24;;;;;;;6.43;5.18;;;;;;;;;;5079034;28;20213;-58
2023/06/14 06:47:51;;;;;;;14.00;6.15;;;;;;;;;;5078932;28;20212;-58
2023/06/14 06:50:19;;;;;;;13.93;6.68;;;;;;;;;;5079714;28;20279;-58
2023/06/14 06:52:46;;;;;;;6.00;5.00;;;;;;;;;;5079520;28;20273;-58
2023/06/14 06:55:12;;;;;;;7.80;4.80;;;;;;;;;;5079143;28;20251;-58
2023/06/14 06:57:39;;;;;;;13.35;5.40;;;;;;;;;;5078637;28;20234;-58
2023/06/14 07:00:07;;;;;;;10.32;5.35;;;;;;;;;;5078607;28;21083;-59
2023/06/14 07:02:34;;;;;;;13.90;5.47;;;;;;;;;;5078868;28;20581;-59
2023/06/14 07:05:00;;;;;;;9.60;5.00;;;;;;;;;;5077995;28;20584;-58
2023/06/14 07:07:28;;;;;;;12.93;5.15;;;;;;;;;;5077377;28;20528;-59
2023/06/14 07:09:54;;;;;;;7.60;5.05;;;;;;;;;;5078165;28;20270;-56
2023/06/14 07:12:20;;;;;;;9.88;5.15;;;;;;;;;;5078321;28;20222;-60
2023/06/14 07:14:47;;;;;;;7.97;4.78;;;;;;;;;;5078738;28;20212;-59
2023/06/14 07:17:13;;;;;;;7.93;4.60;;;;;;;;;;5078273;28;20552;-59
2023/06/14 07:19:39;;;;;;;9.10;4.05;;;;;;;;;;5078136;28;20420;-59
2023/06/14 07:22:05;;;;;;;8.45;4.03;;;;;;;;;;5078243;28;20212;-59
2023/06/14 07:24:36;;;;;;;8.50;4.20;;;;;;;;;;5077930;28;20231;-58
2023/06/14 07:27:03;;;;;;;8.13;4.22;;;;;;;;;;5077330;28;20212;-58
2023/06/14 07:29:29;;;;;;;4.13;3.72;;;;;;;;;;5077716;28;20424;-58
2023/06/14 07:31:55;;;;;;;7.35;3.60;;;;;;;;;;5076971;28;20204;-60
2023/06/14 07:34:21;;;;;;;12.20;3.90;;;;;;;;;;5077397;28;20212;-60
2023/06/14 07:36:48;;;;;;;4.15;3.30;;;;;;;;;;5076955;28;20450;-58
2023/06/14 07:39:14;;;;;;;5.47;3.47;;;;;;;;;;5076670;28;20224;-58
2023/06/14 07:41:42;;;;;;;6.07;2.92;;;;;;;;;;5077300;28;20283;-59
2023/06/14 07:44:08;;;;;;;5.70;3.53;;;;;;;;;;5077448;28;20216;-58
2023/06/14 07:46:35;;;;;;;4.13;3.50;;;;;;;;;;5077922;28;20219;-58
2023/06/14 07:49:01;;;;;;;3.22;3.03;;;;;;;;;;5077290;28;20481;-59
2023/06/14 07:51:27;;;;;;;3.20;3.00;;;;;;;;;;5077260;28;20208;-60
2023/06/14 07:53:53;;;;;;;3.72;3.42;;;;;;;;;;5076373;28;20227;-60
2023/06/14 07:56:20;;;;;;;4.45;3.67;;;;;;;;;;5075477;28;20212;-60
2023/06/14 07:58:48;;;;;;;4.75;3.30;;;;;;;;;;5075985;28;20566;-59
2023/06/14 08:01:15;;;;;;;6.72;3.05;;;;;;;;;;5075251;28;20212;-60
2023/06/14 08:03:41;;;;;;;8.60;3.45;;;;;;;;;;5076035;28;20520;-60
2023/06/14 08:06:08;;;;;;;4.70;3.35;;;;;;;;;;5076083;28;20676;-60
2023/06/14 08:08:34;;;;;;;3.97;3.45;;;;;;;;;;5075429;28;20220;-60
2023/06/14 08:11:00;;;;;;;8.63;3.58;;;;;;;;;;5076892;28;20223;-59
2023/06/14 08:13:26;;;;;;;6.65;3.85;;;;;;;;;;5077082;28;20449;-59
2023/06/14 08:15:55;;;;;;;6.82;3.83;;;;;;;;;;5077116;28;20539;-59
2023/06/14 08:18:21;;;;;;;9.23;4.00;;;;;;;;;;5077061;28;20265;-60
2023/06/14 08:20:47;;;;;;;5.82;3.72;;;;;;;;;;5076594;28;20438;-60
2023/06/14 08:23:13;;;;;;;4.50;3.47;;;;;;;;;;5077102;28;20520;-60
2023/06/14 08:25:40;;;;;;;4.07;3.83;;;;;;;;;;5076550;28;20571;-60
2023/06/14 08:28:06;;;;;;;4.18;3.85;;;;;;;;;;5076432;28;20570;-60
2023/06/14 08:30:32;;;;;;;4.35;3.60;;;;;;;;;;5077008;28;20234;-60
2023/06/14 08:33:00;;;;;;;3.92;3.63;;;;;;;;;;5076377;28;20227;-60
2023/06/14 08:35:27;;;;;;;7.70;3.88;;;;;;;;;;5075243;28;20200;-60
2023/06/14 08:37:53;;;;;;;5.72;3.80;;;;;;;;;;5076133;28;20253;-59
2023/06/14 08:40:21;;;;;;;5.70;4.28;;;;;;;;;;5076356;28;20276;-59
2023/06/14 08:42:48;;;;;;;5.93;3.70;;;;;;;;;;5075759;28;20204;-59
2023/06/14 08:45:15;;;;;;;3.80;3.50;;;;;;;;;;5076372;28;20229;-59
2023/06/14 08:47:41;;;;;;;4.10;3.67;;;;;;;;;;5074601;28;20208;-58
2023/06/14 08:50:09;;;;;;;4.07;3.75;;;;;;;;;;5075176;28;20204;-58
2023/06/14 08:52:40;;;;;;;5.97;3.30;;;;;;;;;;5072199;28;20208;-59
2023/06/14 08:55:06;;;;;;;5.55;3.53;;;;;;;;;;5075560;28;20232;-59
2023/06/14 08:57:37;;;;;;;3.75;3.45;;;;;;;;;;5076089;28;20208;-59
2023/06/14 09:00:09;;;;;;;6.15;3.83;;;;;;;;;;5076029;28;20349;-58
2023/06/14 09:02:36;;;;;;;4.13;3.70;;;;;;;;;;5075728;28;20200;-59
2023/06/14 09:05:03;;;;;;;3.80;3.50;;;;;;;;;;5075743;28;20235;-59
2023/06/14 09:07:30;;;;;;;4.20;3.75;;;;;;;;;;5075675;28;20216;-58
2023/06/14 09:10:06;;;;;;;5.43;3.85;;;;;;;;;;5075962;28;20271;-57
2023/06/14 09:12:32;;;;;;;6.15;3.40;;;;;;;;;;5067851;28;20211;-58
2023/06/14 09:14:59;;;;;;;10.70;4.68;;;;;;;;;;5076603;28;20200;-59
2023/06/14 09:17:26;;;;;;;4.20;3.63;;;;;;;;;;5074860;28;20498;-58
2023/06/14 09:19:52;;;;;;;5.15;3.65;;;;;;;;;;5075949;28;20273;-58
2023/06/14 09:22:18;;;;;;;7.15;4.00;;;;;;;;;;5075450;28;20380;-58
2023/06/14 09:24:46;;;;;;;9.48;3.55;;;;;;;;;;5075816;28;20726;-57
2023/06/14 09:27:15;;;;;;;5.65;3.67;;;;;;;;;;5075072;28;20433;-58
2023/06/14 09:29:41;;;;;;;6.38;3.38;;;;;;;;;;5075550;28;20212;-58
2023/06/14 09:32:09;;;;;;;4.25;3.67;;;;;;;;;;5075237;28;20223;-58
2023/06/14 09:34:36;;;;;;;5.07;3.47;;;;;;;;;;5075209;28;20218;-58
2023/06/14 09:37:02;;;;;;;4.60;3.55;;;;;;;;;;5075279;28;20282;-59
2023/06/14 09:39:28;;;;;;;9.13;3.47;;;;;;;;;;5075697;28;20212;-58
2023/06/14 09:41:56;;;;;;;4.18;3.20;;;;;;;;;;5075355;28;20204;-58
2023/06/14 09:44:25;;;;;;;6.00;3.28;;;;;;;;;;5075474;28;20212;-58
2023/06/14 09:46:51;;;;;;;7.45;3.13;;;;;;;;;;5075199;28;20421;-58
2023/06/14 09:49:17;;;;;;;3.58;2.83;;;;;;;;;;5074907;28;20222;-58
2023/06/14 09:51:45;;;;;;;6.95;3.28;;;;;;;;;;5075878;28;20208;-58
2023/06/14 09:54:15;;;;;;;6.47;2.95;;;;;;;;;;5075201;28;20216;-56
2023/06/14 09:56:42;;;;;;;5.68;2.70;;;;;;;;;;5074851;28;20377;-58
2023/06/14 09:59:10;;;;;;;3.95;2.92;;;;;;;;;;5074289;28;20559;-57
2023/06/14 10:01:42;;;;;;;3.58;3.38;;;;;;;;;;5074656;28;20220;-58
2023/06/14 10:04:09;;;;;;;6.05;3.47;;;;;;;;;;5074057;28;20249;-57
2023/06/14 10:06:37;;;;;;;3.95;3.53;;;;;;;;;;5077455;28;20563;-58
2023/06/14 10:09:05;;;;;;;6.10;3.30;;;;;;;;;;5079333;28;20285;-58
2023/06/14 10:11:31;;;;;;;4.05;3.40;;;;;;;;;;5079558;28;20273;-57
2023/06/14 10:13:58;;;;;;;5.40;3.30;;;;;;;;;;5079558;28;20252;-58
2023/06/14 10:16:29;;;;;;;3.97;3.47;;;;;;;;;;5079026;28;20269;-57
2023/06/14 10:19:01;;;;;;;3.50;3.08;;;;;;;;;;5078882;28;20386;-58
2023/06/14 10:21:33;;;;;;;4.88;3.42;;;;;;;;;;5079633;28;20214;-58
2023/06/14 10:24:01;;;;;;;6.07;3.17;;;;;;;;;;5079172;28;20212;-58
2023/06/14 10:26:28;;;;;;;11.02;3.22;;;;;;;;;;5078583;28;20472;-58
2023/06/14 10:28:58;;;;;;;10.07;3.50;;;;;;;;;;5079326;28;20402;-58
2023/06/14 10:31:40;;;;;;;5.05;3.35;;;;;;;;;;5078616;28;20406;-58
2023/06/14 10:34:06;;;;;;;4.63;3.15;;;;;;;;;;5078639;28;20203;-58
2023/06/14 10:36:34;;;;;;;4.43;3.15;;;;;;;;;;5078913;28;20208;-58
2023/06/14 10:39:02;;;;;;;4.30;3.33;;;;;;;;;;5078328;28;20584;-59
2023/06/14 10:41:28;;;;;;;3.47;2.80;;;;;;;;;;5078835;28;20283;-59
2023/06/14 10:44:10;;;;;;;4.03;3.00;;;;;;;;;;5077821;28;20216;-59
2023/06/14 10:46:37;;;;;;;5.43;3.45;;;;;;;;;;5078102;28;20227;-59
2023/06/14 10:49:05;;;;;;;3.50;3.28;;;;;;;;;;5078531;28;20599;-58
2023/06/14 10:51:45;;;;;;;6.00;3.25;;;;;;;;;;5078536;28;20239;-59
2023/06/14 10:54:12;;;;;;;8.20;3.67;;;;;;;;;;5078028;28;20226;-59
2023/06/14 10:56:38;;;;;;;3.38;3.15;;;;;;;;;;5078304;28;20211;-59
2023/06/14 10:59:05;;;;;;;5.75;3.95;;;;;;;;;;5078607;28;20204;-59
2023/06/14 11:01:37;;;;;;;4.63;3.65;;;;;;;;;;5078040;28;20396;-58
2023/06/14 11:04:11;;;;;;;4.68;3.30;;;;;;;;;;5078431;28;20211;-57
2023/06/14 11:06:46;;;;;;;4.53;3.17;;;;;;;;;;5078743;28;20435;-59
2023/06/14 11:09:42;;;;;;;3.60;3.40;;;;;;;;;;5077751;28;20410;-58
2023/06/14 11:12:10;;;;;;;5.97;3.53;;;;;;;;;;5015955;28;20252;-59
2023/06/14 11:14:36;;;;;;;3.60;3.35;;;;;;;;;;5063716;28;20218;-59
2023/06/14 11:17:03;;;;;;;5.93;2.70;;;;;;;;;;5077187;28;20207;-59
2023/06/14 11:19:31;;;;;;;5.78;3.08;;;;;;;;;;5077436;28;20211;-59
2023/06/14 11:21:57;;;;;;;3.53;3.30;;;;;;;;;;5078176;28;20625;-58
2023/06/14 11:24:24;;;;;;;3.28;3.08;;;;;;;;;;5078185;28;20208;-59
2023/06/14 11:26:50;;;;;;;6.47;3.55;;;;;;;;;;5077516;28;20238;-59
2023/06/14 11:29:17;;;;;;;5.30;3.45;;;;;;;;;;5076953;28;20211;-58
2023/06/14 11:31:44;;;;;;;7.53;3.13;;;;;;;;;;5077050;28;20531;-59
2023/06/14 11:34:10;;;;;;;9.02;3.03;;;;;;;;;;5077433;28;20211;-58
2023/06/14 11:36:39;;;;;;;4.78;3.42;;;;;;;;;;5077910;28;20215;-59
2023/06/14 11:39:06;;;;;;;5.18;3.33;;;;;;;;;;5077350;28;20212;-59
2023/06/14 11:41:33;;;;;;;3.38;2.80;;;;;;;;;;5078055;28;20219;-58
2023/06/14 11:44:01;;;;;;;4.07;3.22;;;;;;;;;;5077969;28;20212;-58
2023/06/14 11:46:27;;;;;;;4.15;3.22;;;;;;;;;;5076719;28;20306;-58
2023/06/14 11:48:53;;;;;;;3.53;3.20;;;;;;;;;;5076583;28;20208;-58
2023/06/14 11:51:20;;;;;;;4.55;3.60;;;;;;;;;;5077905;28;20508;-58
2023/06/14 11:53:47;;;;;;;4.60;3.33;;;;;;;;;;5077235;28;20216;-59
2023/06/14 11:56:14;;;;;;;3.45;3.10;;;;;;;;;;5077329;28;20221;-58
2023/06/14 11:58:40;;;;;;;3.88;3.50;;;;;;;;;;5077041;28;20219;-58
2023/06/14 12:01:06;;;;;;;6.43;3.10;;;;;;;;;;5077679;28;20217;-58
2023/06/14 12:03:33;;;;;;;6.25;3.20;;;;;;;;;;5077421;28;20508;-59
2023/06/14 12:06:08;;;;;;;3.30;2.97;;;;;;;;;;5077222;28;20293;-59
2023/06/14 12:08:38;;;;;;;3.38;2.83;;;;;;;;;;5077072;28;20531;-58
2023/06/14 12:11:08;;;;;;;3.88;3.58;;;;;;;;;;5077661;28;20216;-59
2023/06/14 12:13:34;;;;;;;2.90;2.80;;;;;;;;;;5077516;28;20253;-57
2023/06/14 12:16:01;;;;;;;4.53;3.05;;;;;;;;;;5077431;28;20208;-60
2023/06/14 12:18:34;;;;;;;5.93;3.42;;;;;;;;;;5077383;28;20411;-59
2023/06/14 12:21:02;;;;;;;3.20;3.00;;;;;;;;;;5077160;28;20216;-57
2023/06/14 12:23:39;;;;;;;3.63;3.20;;;;;;;;;;5077065;28;20212;-57
2023/06/14 12:26:06;;;;;;;4.60;2.95;;;;;;;;;;5077275;28;20426;-57
2023/06/14 12:28:33;;;;;;;4.75;3.60;;;;;;;;;;5076519;28;20483;-57
2023/06/14 12:30:59;;;;;;;3.17;2.97;;;;;;;;;;5076621;28;20218;-55
2023/06/14 12:33:25;;;;;;;3.50;3.20;;;;;;;;;;5077443;28;20207;-59
2023/06/14 12:35:52;;;;;;;3.22;3.03;;;;;;;;;;5077106;28;20238;-57
2023/06/14 12:38:18;;;;;;;3.08;2.83;;;;;;;;;;5077275;28;20245;-59
2023/06/14 12:40:44;;;;;;;4.22;3.10;;;;;;;;;;5076845;28;20524;-57
2023/06/14 12:43:12;;;;;;;4.25;2.80;;;;;;;;;;5076805;28;20609;-56
2023/06/14 12:45:38;;;;;;;7.10;3.42;;;;;;;;;;5076029;28;20215;-57
2023/06/14 12:48:05;;;;;;;3.85;3.13;;;;;;;;;;5076244;28;20215;-57
2023/06/14 12:50:31;;;;;;;4.38;2.90;;;;;;;;;;5076513;28;20215;-57
2023/06/14 12:52:57;;;;;;;4.65;3.10;;;;;;;;;;5076148;28;20218;-57
2023/06/14 12:55:23;;;;;;;6.82;3.53;;;;;;;;;;5076710;28;20216;-56
2023/06/14 12:57:51;;;;;;;9.13;3.28;;;;;;;;;;5076519;28;20200;-57
2023/06/14 13:00:20;;;;;;;3.40;3.10;;;;;;;;;;5076466;28;20218;-57
2023/06/14 13:02:46;;;;;;;4.13;2.90;;;;;;;;;;5076470;28;20511;-57
2023/06/14 13:05:12;;;;;;;3.60;3.30;;;;;;;;;;5075804;28;20207;-58
2023/06/14 13:07:39;;;;;;;3.58;3.13;;;;;;;;;;5075511;28;20231;-58
2023/06/14 13:10:05;;;;;;;5.72;3.00;;;;;;;;;;5075919;28;20208;-57
2023/06/14 13:12:31;;;;;;;5.43;2.83;;;;;;;;;;5075456;28;20507;-58
2023/06/14 13:14:58;;;;;;;7.70;3.40;;;;;;;;;;5076014;28;20581;-57
2023/06/14 13:17:25;;;;;;;4.93;3.30;;;;;;;;;;5075914;28;20216;-58
2023/06/14 13:19:52;;;;;;;5.13;3.20;;;;;;;;;;5076023;28;20534;-56
2023/06/14 13:22:18;;;;;;;4.57;3.10;;;;;;;;;;5076174;28;20443;-57
2023/06/14 13:24:44;;;;;;;5.82;3.33;;;;;;;;;;5076147;28;20527;-56
2023/06/14 13:27:11;;;;;;;8.00;3.17;;;;;;;;;;5075960;28;20257;-57
2023/06/14 13:29:37;;;;;;;7.28;3.17;;;;;;;;;;5076496;28;20212;-57
2023/06/14 13:32:03;;;;;;;3.45;3.15;;;;;;;;;;5075754;28;20524;-57
2023/06/14 13:34:31;;;;;;;3.20;3.00;;;;;;;;;;5076125;28;20262;-57
2023/06/14 13:36:58;;;;;;;5.40;3.17;;;;;;;;;;5075944;28;20218;-57
2023/06/14 13:39:25;;;;;;;5.82;2.95;;;;;;;;;;5076220;28;20219;-57
2023/06/14 13:41:51;;;;;;;4.05;3.03;;;;;;;;;;5075054;28;20459;-57
2023/06/14 13:44:21;;;;;;;5.30;3.15;;;;;;;;;;5076316;28;20234;-58
2023/06/14 13:46:47;;;;;;;3.08;2.88;;;;;;;;;;5075963;28;20289;-58
2023/06/14 13:49:13;;;;;;;3.45;2.95;;;;;;;;;;5075564;28;20365;-58
2023/06/14 13:51:41;;;;;;;3.70;2.92;;;;;;;;;;5076246;28;20207;-58
2023/06/14 13:54:07;;;;;;;5.28;3.40;;;;;;;;;;5075770;28;20539;-58
2023/06/14 13:56:33;;;;;;;2.80;2.35;;;;;;;;;;5076151;28;20207;-58
2023/06/14 13:59:00;;;;;;;3.80;3.05;;;;;;;;;;5075996;28;20214;-58
2023/06/14 14:01:28;;;;;;;4.38;2.95;;;;;;;;;;5075640;28;21122;-58
2023/06/14 14:03:54;;;;;;;4.18;3.08;;;;;;;;;;5075363;28;20262;-58
2023/06/14 14:06:21;;;;;;;3.28;2.97;;;;;;;;;;5075381;28;20219;-56
2023/06/14 14:08:48;;;;;;;6.13;2.78;;;;;;;;;;5074793;28;20228;-57
2023/06/14 14:11:16;;;;;;;6.50;3.10;;;;;;;;;;5075595;28;20219;-58
2023/06/14 14:13:42;;;;;;;3.92;2.70;;;;;;;;;;5075480;28;20265;-57
2023/06/14 14:16:10;;;;;;;3.25;2.78;;;;;;;;;;5075552;28;20212;-57
2023/06/14 14:18:36;;;;;;;7.43;3.17;;;;;;;;;;5075042;28;20368;-57
2023/06/14 14:21:03;;;;;;;5.78;3.08;;;;;;;;;;5075517;28;20419;-57
2023/06/14 14:23:29;;;;;;;4.80;3.20;;;;;;;;;;5076194;28;20249;-57
2023/06/14 14:25:57;;;;;;;4.25;2.70;;;;;;;;;;5075332;28;20212;-58
2023/06/14 14:28:24;;;;;;;5.55;3.05;;;;;;;;;;5074921;28;20547;-57
2023/06/14 14:30:50;;;;;;;6.07;3.10;;;;;;;;;;5075550;28;20331;-57
2023/06/14 14:33:17;;;;;;;4.82;3.20;;;;;;;;;;5075620;28;20212;-57
2023/06/14 14:35:44;;;;;;;3.53;2.78;;;;;;;;;;5075497;28;20212;-58
2023/06/14 14:38:10;;;;;;;3.38;3.03;;;;;;;;;;5075584;28;20208;-58
2023/06/14 14:40:36;;;;;;;8.48;3.22;;;;;;;;;;5075752;28;20219;-57
2023/06/14 14:43:04;;;;;;;3.72;3.42;;;;;;;;;;5080383;28;20200;-57